Time;durP1;ratioP1;P1;durP2;ratioP2;P2;SDS_P1;SDS_P2;PMS_P1;PMS_P2;Temp;Humidity;BMP_temperature;BMP_pressure;BME280_temperature;BME280_humidity;BME280_pressure;Samples;Min_cycle;Max_cycle;Signal;HPM_P1;HPM_P2
2023/01/27 00:00:06;;;;;;;17.07;9.20;;;3.20;99.90;;;;;;7388649;19;20197;-77
2023/01/27 00:02:32;;;;;;;15.20;9.70;;;3.30;99.90;;;;;;7395314;19;20294;-75
2023/01/27 00:04:58;;;;;;;18.53;11.30;;;3.20;99.90;;;;;;7397651;19;20142;-75
2023/01/27 00:07:24;;;;;;;15.23;9.77;;;3.20;99.90;;;;;;7395614;19;20178;-75
2023/01/27 00:09:50;;;;;;;18.13;10.73;;;3.30;99.90;;;;;;7391941;19;20626;-75
2023/01/27 00:15:07;;;;;;;14.67;9.23;;;3.20;99.90;;;;;;7394594;19;20146;-75
2023/01/27 00:17:33;;;;;;;13.90;9.30;;;3.00;99.90;;;;;;7397783;19;20513;-75
2023/01/27 00:20:00;;;;;;;15.40;9.03;;;2.70;99.90;;;;;;7392926;19;20822;-76
2023/01/27 00:25:10;;;;;;;15.53;9.50;;;3.00;99.90;;;;;;7397021;19;20251;-74
2023/01/27 00:27:36;;;;;;;14.70;9.00;;;3.00;99.90;;;;;;7394926;19;20646;-76
2023/01/27 00:30:04;;;;;;;16.57;9.87;;;2.90;99.90;;;;;;7394540;19;20225;-75
2023/01/27 00:35:15;;;;;;;17.60;10.13;;;3.10;99.90;;;;;;7391814;19;20250;-75
2023/01/27 00:37:45;;;;;;;14.87;8.83;;;3.10;99.90;;;;;;7393385;19;20153;-75
2023/01/27 00:40:13;;;;;;;17.27;9.93;;;3.20;99.90;;;;;;7391299;19;20143;-76
2023/01/27 00:42:38;;;;;;;16.77;10.00;;;3.10;99.90;;;;;;7394005;19;20154;-76
2023/01/27 00:47:50;;;;;;;16.83;9.40;;;3.00;99.90;;;;;;7389661;19;20145;-74
2023/01/27 00:50:16;;;;;;;18.00;10.10;;;3.00;99.90;;;;;;7394074;19;20139;-75
2023/01/27 00:52:42;;;;;;;16.70;9.23;;;3.00;99.90;;;;;;7397055;19;20135;-75
2023/01/27 00:55:14;;;;;;;14.70;9.80;;;3.00;99.90;;;;;;7395181;19;20149;-74
2023/01/27 00:57:40;;;;;;;17.53;10.10;;;3.00;99.90;;;;;;7392433;19;20143;-75
2023/01/27 01:00:08;;;;;;;16.90;9.77;;;3.00;99.90;;;;;;7388967;19;20171;-75
2023/01/27 01:02:34;;;;;;;14.07;8.70;;;3.00;99.90;;;;;;7393396;19;20594;-76
2023/01/27 01:05:00;;;;;;;13.93;9.23;;;3.00;99.90;;;;;;7394545;19;20226;-74
2023/01/27 01:07:26;;;;;;;16.93;10.07;;;3.00;99.90;;;;;;7391235;19;20222;-74
2023/01/27 01:09:51;;;;;;;16.40;9.40;;;2.90;99.90;;;;;;7393615;19;20135;-75
2023/01/27 01:12:17;;;;;;;19.13;10.27;;;3.00;99.90;;;;;;7391822;19;20171;-75
2023/01/27 01:14:43;;;;;;;17.13;10.63;;;2.90;99.90;;;;;;7389525;19;20134;-75
2023/01/27 01:17:08;;;;;;;14.63;9.93;;;2.90;99.90;;;;;;7392577;19;20139;-76
2023/01/27 01:19:34;;;;;;;17.60;9.83;;;2.90;99.90;;;;;;7391532;19;20529;-75
2023/01/27 01:22:00;;;;;;;13.50;9.43;;;3.00;99.90;;;;;;7388404;19;20154;-74
2023/01/27 01:24:26;;;;;;;16.63;9.53;;;3.00;99.90;;;;;;7393746;19;20138;-74
2023/01/27 01:26:52;;;;;;;16.17;9.47;;;2.90;99.90;;;;;;7391585;19;20126;-76
2023/01/27 01:29:17;;;;;;;14.60;9.20;;;2.80;99.90;;;;;;7391568;19;20157;-75
2023/01/27 01:31:43;;;;;;;15.80;10.20;;;2.80;99.90;;;;;;7395306;19;20130;-75
2023/01/27 01:34:09;;;;;;;15.63;9.27;;;2.80;99.90;;;;;;7392556;19;20206;-74
2023/01/27 01:36:35;;;;;;;16.00;9.70;;;2.90;99.90;;;;;;7391739;19;20214;-75
2023/01/27 01:39:00;;;;;;;16.87;9.77;;;2.80;99.90;;;;;;7391538;19;20135;-75
2023/01/27 01:41:26;;;;;;;15.13;9.10;;;2.70;99.90;;;;;;7393103;19;20146;-73
2023/01/27 01:43:52;;;;;;;14.73;8.77;;;2.80;99.90;;;;;;7391958;19;20206;-74
2023/01/27 01:46:18;;;;;;;16.63;10.10;;;2.90;99.90;;;;;;7386593;19;20161;-75
2023/01/27 01:48:48;;;;;;;18.13;10.10;;;2.90;99.90;;;;;;7393599;19;20172;-75
2023/01/27 01:51:21;;;;;;;14.20;8.20;;;3.00;99.90;;;;;;7391929;19;20172;-74
2023/01/27 01:53:57;;;;;;;15.03;9.20;;;3.00;99.90;;;;;;7391511;19;20498;-74
2023/01/27 01:56:29;;;;;;;16.77;9.10;;;3.00;99.90;;;;;;7391172;19;20497;-75
2023/01/27 01:58:56;;;;;;;14.30;8.83;;;3.00;99.90;;;;;;7388522;19;20138;-74
2023/01/27 02:01:22;;;;;;;16.37;9.53;;;3.00;99.90;;;;;;7389907;19;20222;-72
2023/01/27 02:03:53;;;;;;;13.13;8.17;;;3.00;99.90;;;;;;7389663;19;20230;-73
2023/01/27 02:06:19;;;;;;;13.57;8.37;;;2.90;99.90;;;;;;7391058;19;20158;-72
2023/01/27 02:08:48;;;;;;;11.97;7.27;;;3.10;99.90;;;;;;7391164;19;20190;-72
2023/01/27 02:11:13;;;;;;;14.67;8.43;;;3.00;99.90;;;;;;7389319;19;20146;-71
2023/01/27 02:13:40;;;;;;;12.37;7.97;;;3.00;99.90;;;;;;7391082;19;20149;-72
2023/01/27 02:16:07;;;;;;;12.27;7.47;;;3.10;99.90;;;;;;7388300;19;20147;-73
2023/01/27 02:18:32;;;;;;;11.53;6.30;;;3.10;99.90;;;;;;7389614;19;20150;-72
2023/01/27 02:20:58;;;;;;;12.87;7.57;;;3.10;99.90;;;;;;7390516;19;20652;-73
2023/01/27 02:23:38;;;;;;;12.67;7.50;;;3.10;99.90;;;;;;7388355;19;20614;-72
2023/01/27 02:26:06;;;;;;;11.20;6.70;;;2.80;99.90;;;;;;7382950;19;20164;-71
2023/01/27 02:28:34;;;;;;;10.57;6.60;;;2.40;99.90;;;;;;7391206;19;20170;-72
2023/01/27 02:31:00;;;;;;;9.67;6.30;;;2.70;99.90;;;;;;7388940;19;20151;-73
2023/01/27 02:33:26;;;;;;;12.10;6.57;;;2.80;99.90;;;;;;7387061;19;20158;-73
2023/01/27 02:36:02;;;;;;;10.63;6.90;;;2.90;99.90;;;;;;7388545;19;20151;-72
2023/01/27 02:38:33;;;;;;;11.63;6.63;;;2.90;99.90;;;;;;7391296;19;20256;-72
2023/01/27 02:41:14;;;;;;;10.07;6.23;;;3.00;99.90;;;;;;7387447;19;20138;-71
2023/01/27 02:43:41;;;;;;;16.00;7.10;;;3.10;99.90;;;;;;7387336;19;20247;-71
2023/01/27 02:46:06;;;;;;;12.43;6.63;;;3.00;99.90;;;;;;7388537;19;20142;-72
2023/01/27 02:48:32;;;;;;;10.17;6.43;;;3.10;99.90;;;;;;7388486;19;20134;-72
2023/01/27 02:50:58;;;;;;;11.90;6.10;;;3.20;99.90;;;;;;7385083;19;20583;-73
2023/01/27 02:53:24;;;;;;;11.57;6.07;;;3.10;99.90;;;;;;7389170;19;20130;-73
2023/01/27 02:55:50;;;;;;;9.03;5.43;;;3.10;99.90;;;;;;7389255;19;20156;-72
2023/01/27 02:58:16;;;;;;;10.90;6.13;;;3.00;99.90;;;;;;7388567;19;20588;-72
2023/01/27 03:00:42;;;;;;;11.73;6.83;;;3.00;99.90;;;;;;7386959;19;20178;-71
2023/01/27 03:03:08;;;;;;;10.23;6.40;;;3.00;99.90;;;;;;7387211;19;20169;-73
2023/01/27 03:05:34;;;;;;;8.57;5.50;;;3.10;99.90;;;;;;7387664;19;20599;-72
2023/01/27 03:07:59;;;;;;;11.23;6.90;;;2.70;99.90;;;;;;7388330;19;20131;-73
2023/01/27 03:10:25;;;;;;;11.27;6.47;;;2.70;99.90;;;;;;7390694;19;20131;-74
2023/01/27 03:12:53;;;;;;;9.00;6.57;;;2.90;99.90;;;;;;7390296;19;20609;-71
2023/01/27 03:18:08;;;;;;;12.43;7.03;;;3.10;99.90;;;;;;7390541;19;20508;-71
2023/01/27 03:20:34;;;;;;;11.47;7.07;;;3.10;99.90;;;;;;7388939;19;21098;-73
2023/01/27 03:23:00;;;;;;;11.77;6.80;;;3.20;99.90;;;;;;7391072;19;20146;-71
2023/01/27 03:25:26;;;;;;;12.63;7.20;;;3.20;99.90;;;;;;7382575;19;20134;-72
2023/01/27 03:27:54;;;;;;;11.50;7.07;;;3.20;99.90;;;;;;7388918;19;20468;-72
2023/01/27 03:30:20;;;;;;;10.37;6.90;;;3.20;99.90;;;;;;7388354;19;20202;-71
2023/01/27 03:32:45;;;;;;;11.63;7.33;;;3.20;99.90;;;;;;7387856;19;20164;-73
2023/01/27 03:35:13;;;;;;;13.43;8.00;;;3.00;99.90;;;;;;7388007;19;20218;-72
2023/01/27 03:48:37;;;;;;;12.80;7.90;;;3.00;99.90;;;;;;7387025;19;20201;-75
2023/01/27 03:51:05;;;;;;;14.03;8.13;;;3.10;99.90;;;;;;7385489;19;20599;-73
2023/01/27 03:53:32;;;;;;;12.27;7.90;;;3.10;99.90;;;;;;7389006;19;20134;-73
2023/01/27 03:55:58;;;;;;;13.77;7.87;;;3.10;99.90;;;;;;7385467;19;20275;-72
2023/01/27 03:58:28;;;;;;;12.07;7.70;;;3.10;99.90;;;;;;7390314;19;20148;-71
2023/01/27 04:00:56;;;;;;;11.90;7.80;;;3.10;99.90;;;;;;7386994;19;20253;-74
2023/01/27 04:08:56;;;;;;;10.40;7.33;;;3.10;99.90;;;;;;7385690;19;20573;-72
2023/01/27 04:14:07;;;;;;;12.57;7.97;;;3.10;99.90;;;;;;7386561;19;20135;-72
2023/01/27 04:16:35;;;;;;;15.70;7.90;;;3.20;99.90;;;;;;7386684;19;20156;-73
2023/01/27 04:19:06;;;;;;;12.70;7.87;;;3.20;99.90;;;;;;7386421;19;20619;-72
2023/01/27 04:21:32;;;;;;;15.53;7.93;;;3.20;99.90;;;;;;7385487;19;20146;-73
2023/01/27 04:23:58;;;;;;;11.70;7.60;;;3.20;99.90;;;;;;7386853;19;20555;-72
2023/01/27 04:26:25;;;;;;;12.50;7.37;;;3.20;99.90;;;;;;7385119;19;20153;-72
2023/01/27 04:28:51;;;;;;;11.87;7.23;;;3.20;99.90;;;;;;7394397;19;20138;-72
2023/01/27 04:31:17;;;;;;;11.93;8.23;;;3.10;99.90;;;;;;7394248;19;20176;-73
2023/01/27 04:33:43;;;;;;;13.60;8.27;;;3.10;99.90;;;;;;7396348;19;20587;-73
2023/01/27 04:36:11;;;;;;;12.30;7.63;;;3.10;99.90;;;;;;7394373;19;20134;-72
2023/01/27 04:38:37;;;;;;;13.60;8.87;;;3.10;99.90;;;;;;7389229;19;20143;-71
2023/01/27 04:41:03;;;;;;;12.40;8.30;;;3.10;99.90;;;;;;7394522;19;20139;-73
2023/01/27 04:43:29;;;;;;;16.63;9.33;;;3.20;99.90;;;;;;7392138;19;20134;-73
2023/01/27 04:45:54;;;;;;;13.23;8.80;;;3.20;99.90;;;;;;7391491;19;20465;-71
2023/01/27 04:48:20;;;;;;;13.60;8.53;;;3.20;99.90;;;;;;7392462;19;20138;-72
2023/01/27 04:50:46;;;;;;;15.80;9.40;;;3.10;99.90;;;;;;7393370;19;20636;-72
2023/01/27 04:53:12;;;;;;;14.93;10.07;;;3.00;99.90;;;;;;7392639;19;20168;-72
2023/01/27 04:55:37;;;;;;;14.83;8.87;;;3.10;99.90;;;;;;7393377;19;20150;-73
2023/01/27 04:58:04;;;;;;;15.53;9.50;;;3.10;99.90;;;;;;7393629;19;20210;-73
2023/01/27 05:00:30;;;;;;;13.30;9.17;;;3.20;99.90;;;;;;7392022;19;20157;-72
2023/01/27 05:02:56;;;;;;;16.13;10.03;;;3.10;99.90;;;;;;7391958;19;20135;-72
2023/01/27 05:05:22;;;;;;;16.57;10.07;;;3.10;99.90;;;;;;7392177;19;20137;-72
2023/01/27 05:07:47;;;;;;;15.87;9.50;;;3.20;99.90;;;;;;7393371;19;20499;-72
2023/01/27 05:10:13;;;;;;;12.80;8.97;;;3.20;99.90;;;;;;7394037;19;20147;-73
2023/01/27 05:12:39;;;;;;;19.83;10.53;;;3.10;99.90;;;;;;7394857;19;20154;-72
2023/01/27 05:15:05;;;;;;;16.43;9.97;;;3.00;99.90;;;;;;7392248;19;20135;-72
2023/01/27 05:17:32;;;;;;;17.50;10.43;;;3.10;99.90;;;;;;7391730;19;20138;-73
2023/01/27 05:19:58;;;;;;;16.27;10.63;;;3.00;99.90;;;;;;7392328;19;20262;-72
2023/01/27 05:22:24;;;;;;;14.80;10.10;;;3.10;99.90;;;;;;7392140;19;20177;-72
2023/01/27 05:24:49;;;;;;;14.53;10.30;;;3.10;99.90;;;;;;7393289;19;20145;-72
2023/01/27 05:27:16;;;;;;;19.87;10.93;;;3.20;99.90;;;;;;7392822;19;20522;-72
2023/01/27 05:29:42;;;;;;;16.63;10.70;;;3.20;99.90;;;;;;7390818;19;20150;-72
2023/01/27 05:32:07;;;;;;;19.03;10.43;;;3.20;99.90;;;;;;7391960;19;20176;-72
2023/01/27 05:34:33;;;;;;;18.67;11.70;;;3.20;99.90;;;;;;7390558;19;20142;-71
2023/01/27 05:36:59;;;;;;;18.40;10.43;;;3.20;99.90;;;;;;7391596;19;20138;-72
2023/01/27 05:39:25;;;;;;;16.33;10.57;;;3.20;99.90;;;;;;7389642;19;20159;-73
2023/01/27 05:41:50;;;;;;;19.07;11.07;;;3.10;99.90;;;;;;7391414;19;20511;-72
2023/01/27 05:44:16;;;;;;;16.67;10.33;;;3.20;99.90;;;;;;7392838;19;20626;-72
2023/01/27 05:46:42;;;;;;;18.33;10.87;;;3.10;99.90;;;;;;7391374;19;20554;-71
2023/01/27 05:49:08;;;;;;;15.13;9.93;;;3.00;99.90;;;;;;7390646;19;20143;-72
2023/01/27 05:51:36;;;;;;;17.50;10.77;;;3.00;99.90;;;;;;7386257;19;20141;-73
2023/01/27 05:54:02;;;;;;;17.83;10.53;;;3.00;99.90;;;;;;7390755;19;20150;-72
2023/01/27 05:56:28;;;;;;;19.30;10.77;;;3.00;99.90;;;;;;7391573;19;20500;-73
2023/01/27 05:58:54;;;;;;;15.93;10.03;;;3.10;99.90;;;;;;7388261;19;20159;-73
2023/01/27 06:01:22;;;;;;;16.97;10.13;;;3.00;99.90;;;;;;7387080;19;20151;-72
2023/01/27 06:03:49;;;;;;;15.37;9.67;;;3.10;99.90;;;;;;7390126;19;20146;-73
2023/01/27 06:06:17;;;;;;;17.83;10.83;;;3.10;99.90;;;;;;7387760;19;20142;-73
2023/01/27 06:08:44;;;;;;;18.40;10.43;;;2.90;99.90;;;;;;7387730;19;20255;-73
2023/01/27 06:11:10;;;;;;;16.43;10.80;;;2.80;99.90;;;;;;7390759;19;20161;-73
2023/01/27 06:13:39;;;;;;;17.03;11.00;;;2.90;99.90;;;;;;7391617;19;20133;-73
2023/01/27 06:16:08;;;;;;;16.50;9.87;;;3.10;99.90;;;;;;7390588;19;20138;-72
2023/01/27 06:18:35;;;;;;;16.13;10.07;;;3.20;99.90;;;;;;7388085;19;20182;-73
2023/01/27 06:21:02;;;;;;;18.20;10.53;;;3.20;99.90;;;;;;7390602;19;20463;-72
2023/01/27 06:23:28;;;;;;;15.60;9.97;;;3.20;99.90;;;;;;7380055;19;20493;-73
2023/01/27 06:25:55;;;;;;;14.97;9.57;;;3.20;99.90;;;;;;7375398;19;20127;-73
2023/01/27 06:28:21;;;;;;;14.30;9.20;;;3.20;99.90;;;;;;7386378;19;20154;-73
2023/01/27 06:30:47;;;;;;;14.70;9.17;;;3.30;99.90;;;;;;7385696;19;20146;-73
2023/01/27 06:33:13;;;;;;;15.43;9.10;;;3.20;99.90;;;;;;7384321;19;20587;-72
2023/01/27 06:35:40;;;;;;;16.07;9.77;;;3.10;99.90;;;;;;7388690;19;20226;-72
2023/01/27 06:38:09;;;;;;;16.50;10.67;;;3.00;99.90;;;;;;7392386;19;20156;-72
2023/01/27 06:40:35;;;;;;;14.87;9.13;;;3.10;99.90;;;;;;7389143;19;20130;-73
2023/01/27 06:43:01;;;;;;;16.47;10.13;;;3.10;99.90;;;;;;7390280;19;20146;-71
2023/01/27 06:45:27;;;;;;;16.33;9.33;;;3.10;99.90;;;;;;7390678;19;20143;-74
2023/01/27 06:47:58;;;;;;;15.27;10.30;;;3.00;99.90;;;;;;7387764;19;20127;-72
2023/01/27 06:50:26;;;;;;;17.87;10.23;;;3.10;99.90;;;;;;7384850;19;20539;-74
2023/01/27 06:52:57;;;;;;;15.07;9.70;;;3.10;99.90;;;;;;7383977;19;20927;-74
2023/01/27 06:55:23;;;;;;;15.43;10.13;;;3.20;99.90;;;;;;7386575;19;20135;-73
2023/01/27 06:57:49;;;;;;;16.33;10.13;;;3.10;99.90;;;;;;7382604;19;20150;-74
2023/01/27 07:00:15;;;;;;;14.57;9.67;;;3.10;99.90;;;;;;7383601;19;20174;-74
2023/01/27 07:02:42;;;;;;;16.87;10.17;;;3.10;99.90;;;;;;7383867;19;20162;-73
2023/01/27 07:05:09;;;;;;;15.77;9.17;;;3.10;99.90;;;;;;7387719;19;20221;-72
2023/01/27 07:07:35;;;;;;;14.37;9.33;;;3.20;99.90;;;;;;7386981;19;20146;-73
2023/01/27 07:10:00;;;;;;;15.07;9.27;;;3.20;99.90;;;;;;7390585;19;20146;-73
2023/01/27 07:12:26;;;;;;;16.03;9.83;;;3.30;99.90;;;;;;7387013;19;20222;-74
2023/01/27 07:14:52;;;;;;;14.63;9.90;;;3.20;99.90;;;;;;7387278;19;20147;-73
2023/01/27 07:17:18;;;;;;;16.13;10.00;;;3.20;99.90;;;;;;7392121;19;20155;-73
2023/01/27 07:19:43;;;;;;;14.40;9.73;;;3.20;99.90;;;;;;7389898;19;20154;-72
2023/01/27 07:22:09;;;;;;;13.10;8.80;;;3.20;99.90;;;;;;7388738;19;20153;-73
2023/01/27 07:24:35;;;;;;;16.57;9.33;;;3.10;99.90;;;;;;7389368;19;20151;-73
2023/01/27 07:27:01;;;;;;;15.33;9.47;;;3.10;99.90;;;;;;7386613;19;20495;-73
2023/01/27 07:29:26;;;;;;;12.23;8.30;;;3.10;99.90;;;;;;7387309;19;20474;-73
2023/01/27 07:31:52;;;;;;;16.90;9.90;;;3.20;99.90;;;;;;7388205;19;20153;-73
2023/01/27 07:34:18;;;;;;;15.60;9.43;;;3.10;99.90;;;;;;7386734;19;20141;-75
2023/01/27 07:36:46;;;;;;;13.53;9.17;;;3.10;99.90;;;;;;7387887;19;20167;-74
2023/01/27 07:39:12;;;;;;;14.00;8.53;;;3.20;99.90;;;;;;7388822;19;20142;-73
2023/01/27 07:41:38;;;;;;;13.80;8.70;;;3.10;99.90;;;;;;7388746;19;20147;-73
2023/01/27 07:44:04;;;;;;;13.30;9.20;;;3.10;99.90;;;;;;7389871;19;20149;-70
2023/01/27 07:46:29;;;;;;;18.10;9.63;;;3.10;99.90;;;;;;7387196;19;20123;-72
2023/01/27 07:48:55;;;;;;;14.10;8.67;;;3.10;99.90;;;;;;7387568;19;20155;-73
2023/01/27 07:51:21;;;;;;;12.10;8.30;;;3.20;99.90;;;;;;7381756;19;20202;-74
2023/01/27 07:53:46;;;;;;;14.20;8.17;;;3.20;99.90;;;;;;7377436;19;20470;-74
2023/01/27 07:56:12;;;;;;;11.83;7.77;;;3.30;99.90;;;;;;7381930;19;20547;-72
2023/01/27 07:58:39;;;;;;;13.23;8.10;;;3.30;99.90;;;;;;7382808;19;20213;-73
2023/01/27 08:01:10;;;;;;;13.10;8.43;;;3.40;99.90;;;;;;7383829;19;20219;-72
2023/01/27 08:03:36;;;;;;;15.90;9.20;;;3.30;99.90;;;;;;7390753;19;20151;-73
2023/01/27 08:06:07;;;;;;;13.37;8.10;;;3.40;99.90;;;;;;7390412;19;20738;-73
2023/01/27 08:08:33;;;;;;;13.27;8.30;;;3.30;99.90;;;;;;7395757;19;20143;-74
2023/01/27 08:11:07;;;;;;;14.57;8.67;;;3.20;99.90;;;;;;7392202;19;20134;-73
2023/01/27 08:13:35;;;;;;;14.03;7.27;;;3.20;99.90;;;;;;7396890;19;20147;-72
2023/01/27 08:16:04;;;;;;;12.50;8.10;;;3.20;99.90;;;;;;7395763;19;20591;-72
2023/01/27 08:18:32;;;;;;;13.73;6.97;;;3.20;99.90;;;;;;7394968;19;20157;-72
2023/01/27 08:21:03;;;;;;;11.67;7.47;;;3.20;99.90;;;;;;7392724;19;20153;-73
2023/01/27 08:23:29;;;;;;;11.80;7.77;;;3.30;99.90;;;;;;7393871;19;20243;-73
2023/01/27 08:25:56;;;;;;;11.77;7.20;;;3.20;99.90;;;;;;7393154;19;20142;-74
2023/01/27 08:28:25;;;;;;;15.50;8.03;;;3.10;99.90;;;;;;7393861;19;20134;-73
2023/01/27 08:30:52;;;;;;;11.83;7.07;;;3.10;99.90;;;;;;7397547;19;20591;-76
2023/01/27 08:33:19;;;;;;;12.07;8.20;;;3.20;99.90;;;;;;7396423;19;20128;-73
2023/01/27 08:35:45;;;;;;;14.73;8.50;;;3.20;99.90;;;;;;7396884;19;20144;-73
2023/01/27 08:38:12;;;;;;;14.00;8.13;;;3.10;99.90;;;;;;7394850;19;20134;-73
2023/01/27 08:40:39;;;;;;;13.43;7.73;;;3.10;99.90;;;;;;7393751;19;20147;-71
2023/01/27 08:43:05;;;;;;;11.90;7.60;;;3.10;99.90;;;;;;7394259;19;20487;-74
2023/01/27 08:45:31;;;;;;;13.03;7.33;;;2.90;99.90;;;;;;7394491;19;20562;-73
2023/01/27 08:47:57;;;;;;;12.27;7.87;;;2.90;99.90;;;;;;7397598;19;20151;-72
2023/01/27 08:50:23;;;;;;;12.13;7.23;;;3.20;99.90;;;;;;7396049;19;20158;-73
2023/01/27 08:52:49;;;;;;;12.37;7.43;;;3.20;99.90;;;;;;7393911;19;20131;-73
2023/01/27 08:55:15;;;;;;;11.83;7.23;;;3.20;99.90;;;;;;7394410;19;20146;-73
2023/01/27 08:57:40;;;;;;;11.27;7.13;;;3.20;99.90;;;;;;7394945;19;20474;-73
2023/01/27 09:00:08;;;;;;;14.67;7.70;;;3.20;99.90;;;;;;7392067;19;20235;-72
2023/01/27 09:02:34;;;;;;;12.80;7.23;;;3.20;99.90;;;;;;7393785;19;20134;-73
2023/01/27 09:05:00;;;;;;;12.17;6.83;;;3.30;99.90;;;;;;7393388;19;20149;-73
2023/01/27 09:07:25;;;;;;;11.73;6.97;;;3.30;99.90;;;;;;7393531;19;20206;-73
2023/01/27 09:09:51;;;;;;;12.13;7.17;;;3.20;99.90;;;;;;7395168;19;20619;-74
2023/01/27 09:12:17;;;;;;;12.93;7.87;;;3.30;99.90;;;;;;7392576;19;20704;-73
2023/01/27 09:14:43;;;;;;;12.37;7.23;;;3.30;99.90;;;;;;7393671;19;20146;-73
2023/01/27 09:17:09;;;;;;;11.20;7.10;;;3.30;99.90;;;;;;7392939;19;20151;-72
2023/01/27 09:19:35;;;;;;;13.60;7.50;;;3.20;99.90;;;;;;7394022;19;20576;-73
2023/01/27 09:22:01;;;;;;;13.90;7.63;;;3.20;99.90;;;;;;7393246;19;20150;-74
2023/01/27 09:24:27;;;;;;;15.40;8.40;;;3.30;99.90;;;;;;7395002;19;20210;-75
2023/01/27 09:26:53;;;;;;;14.17;8.43;;;3.30;99.90;;;;;;7393115;19;20147;-73
2023/01/27 09:29:22;;;;;;;14.57;8.03;;;3.20;99.90;;;;;;7392414;19;20155;-73
2023/01/27 09:31:47;;;;;;;13.83;7.80;;;3.10;99.90;;;;;;7393496;19;20127;-73
2023/01/27 09:34:13;;;;;;;13.83;7.63;;;3.30;99.90;;;;;;7393026;19;20158;-75
2023/01/27 09:36:47;;;;;;;13.80;8.47;;;3.30;99.90;;;;;;7391490;19;20134;-73
2023/01/27 09:39:15;;;;;;;14.87;8.43;;;3.20;99.90;;;;;;7391041;19;20146;-72
2023/01/27 09:41:58;;;;;;;16.10;8.93;;;3.10;99.90;;;;;;7400080;19;20141;-72
2023/01/27 09:44:48;;;;;;;13.50;8.47;;;3.10;99.90;;;;;;7392084;19;20588;-72
2023/01/27 09:47:45;;;;;;;15.70;8.70;;;3.10;99.90;;;;;;7398900;19;20134;-73
2023/01/27 09:50:35;;;;;;;15.70;8.47;;;3.20;99.90;;;;;;7389909;19;20218;-73
2023/01/27 09:53:13;;;;;;;17.67;8.90;;;3.20;99.90;;;;;;7394031;19;20571;-73
2023/01/27 09:55:47;;;;;;;16.70;8.27;;;3.30;99.90;;;;;;7393981;19;20142;-71
2023/01/27 09:58:44;;;;;;;18.80;9.40;;;3.30;99.90;;;;;;7392871;19;20170;-74
2023/01/27 10:01:24;;;;;;;15.73;8.40;;;3.30;99.90;;;;;;7391480;19;20178;-74
2023/01/27 10:04:21;;;;;;;19.53;9.80;;;3.10;99.90;;;;;;7392216;19;20142;-72
2023/01/27 10:07:38;;;;;;;16.60;8.70;;;3.20;99.90;;;;;;7392479;19;20165;-73
2023/01/27 10:10:40;;;;;;;17.10;9.13;;;3.10;99.90;;;;;;7390325;19;20139;-74
2023/01/27 10:13:21;;;;;;;16.10;8.57;;;3.10;99.90;;;;;;7390733;19;20623;-73
2023/01/27 10:16:12;;;;;;;18.23;9.23;;;3.30;99.90;;;;;;7391575;19;20162;-73
2023/01/27 10:18:59;;;;;;;14.23;8.40;;;3.40;99.90;;;;;;7390019;19;20180;-74
2023/01/27 10:21:49;;;;;;;15.03;7.67;;;3.40;99.90;;;;;;7391895;19;20174;-74
2023/01/27 10:24:20;;;;;;;15.30;7.80;;;3.50;99.90;;;;;;7390513;19;20146;-73
2023/01/27 10:26:53;;;;;;;15.10;8.50;;;3.30;99.90;;;;;;7393357;19;20131;-71
2023/01/27 10:29:24;;;;;;;13.90;7.33;;;3.40;99.90;;;;;;7393871;19;20210;-74
2023/01/27 10:32:02;;;;;;;14.70;7.13;;;3.40;99.90;;;;;;7391694;19;20158;-72
2023/01/27 10:34:42;;;;;;;14.80;7.87;;;3.40;99.90;;;;;;7391582;19;20158;-72
2023/01/27 10:37:29;;;;;;;16.70;8.80;;;3.60;99.90;;;;;;7403034;19;20198;-74
2023/01/27 10:40:11;;;;;;;12.30;7.50;;;3.50;99.90;;;;;;7397644;19;20138;-74
2023/01/27 10:43:03;;;;;;;15.90;8.27;;;3.60;99.90;;;;;;7391286;19;20146;-72
2023/01/27 10:45:36;;;;;;;15.17;8.03;;;3.60;99.90;;;;;;7389260;19;20142;-73
2023/01/27 10:48:10;;;;;;;11.77;6.77;;;3.60;99.90;;;;;;7388725;19;20651;-73
2023/01/27 10:50:45;;;;;;;14.63;8.47;;;3.50;99.90;;;;;;7390775;19;20150;-74
2023/01/27 10:53:24;;;;;;;13.83;7.57;;;3.50;99.90;;;;;;7391525;19;20137;-74
2023/01/27 10:56:10;;;;;;;14.43;7.90;;;3.50;99.90;;;;;;7389813;19;20138;-74
2023/01/27 10:58:48;;;;;;;14.57;7.87;;;3.50;99.90;;;;;;7390223;19;20150;-72
2023/01/27 11:01:19;;;;;;;11.53;7.00;;;3.70;99.90;;;;;;7402173;19;20149;-70
2023/01/27 11:04:16;;;;;;;10.73;6.63;;;3.60;99.90;;;;;;7394751;19;20154;-74
2023/01/27 11:06:44;;;;;;;13.80;7.33;;;3.70;99.90;;;;;;7386642;19;20158;-72
2023/01/27 11:09:36;;;;;;;13.47;7.47;;;3.80;99.90;;;;;;7389265;19;20134;-73
2023/01/27 11:12:11;;;;;;;13.53;7.43;;;3.80;99.90;;;;;;7389532;19;20185;-74
2023/01/27 11:14:45;;;;;;;11.67;6.63;;;3.50;99.90;;;;;;7389190;19;20141;-72
2023/01/27 11:17:33;;;;;;;15.07;7.23;;;3.10;99.90;;;;;;7392875;19;20133;-74
2023/01/27 11:20:15;;;;;;;10.93;6.83;;;3.50;99.90;;;;;;7391666;19;20615;-74
2023/01/27 11:22:54;;;;;;;11.97;6.77;;;3.70;99.90;;;;;;7396673;19;20493;-74
2023/01/27 11:25:32;;;;;;;11.57;6.63;;;4.00;99.90;;;;;;7389425;19;20170;-74
2023/01/27 11:28:24;;;;;;;11.53;6.27;;;3.90;99.90;;;;;;7389451;19;20142;-74
2023/01/27 11:31:10;;;;;;;10.63;6.57;;;3.90;99.90;;;;;;7391243;19;20142;-73
2023/01/27 11:33:51;;;;;;;10.90;5.70;;;4.00;99.90;;;;;;7388845;19;20138;-72
2023/01/27 11:36:16;;;;;;;11.70;6.27;;;3.90;99.90;;;;;;7383280;19;20182;-73
2023/01/27 11:38:42;;;;;;;9.00;5.97;;;3.80;99.90;;;;;;7394477;19;20135;-75
2023/01/27 11:41:09;;;;;;;9.33;5.93;;;3.90;99.90;;;;;;7391907;19;20150;-73
2023/01/27 11:43:37;;;;;;;10.10;6.50;;;3.80;99.90;;;;;;7392597;19;20142;-75
2023/01/27 11:46:06;;;;;;;14.63;7.50;;;3.80;99.90;;;;;;7394543;19;20151;-74
2023/01/27 11:48:43;;;;;;;12.67;6.77;;;3.90;99.90;;;;;;7390963;19;20163;-73
2023/01/27 11:51:23;;;;;;;12.80;6.10;;;3.90;99.90;;;;;;7393037;19;20208;-74
2023/01/27 11:54:03;;;;;;;9.90;5.93;;;3.90;99.90;;;;;;7396880;19;20240;-73
2023/01/27 11:56:32;;;;;;;10.50;5.97;;;4.00;99.90;;;;;;7393741;19;20153;-74
2023/01/27 11:59:05;;;;;;;11.23;6.10;;;4.00;99.90;;;;;;7395516;19;20139;-73
2023/01/27 12:02:06;;;;;;;11.23;6.53;;;4.00;99.90;;;;;;7391390;19;20246;-73
2023/01/27 12:04:47;;;;;;;11.50;6.63;;;3.90;99.90;;;;;;7391150;19;20134;-72
2023/01/27 12:07:25;;;;;;;11.27;6.10;;;3.90;99.90;;;;;;7396197;19;20131;-72
2023/01/27 12:09:50;;;;;;;9.43;5.47;;;3.90;99.90;;;;;;7395020;19;20162;-73
2023/01/27 12:12:22;;;;;;;9.93;6.13;;;3.90;99.90;;;;;;7393452;19;20164;-72
2023/01/27 12:14:58;;;;;;;10.03;6.50;;;3.80;99.90;;;;;;7398129;19;20130;-70
2023/01/27 12:17:41;;;;;;;11.80;6.63;;;3.80;99.90;;;;;;7400988;19;20170;-72
2023/01/27 12:20:31;;;;;;;11.03;6.50;;;3.90;99.90;;;;;;7391771;19;20212;-71
2023/01/27 12:23:05;;;;;;;12.43;6.87;;;3.90;99.90;;;;;;7393689;19;20603;-72
2023/01/27 12:25:42;;;;;;;11.87;6.50;;;3.90;99.90;;;;;;7392345;19;20138;-72
2023/01/27 12:28:21;;;;;;;12.60;7.70;;;3.90;99.90;;;;;;7394223;19;20201;-73
2023/01/27 12:30:47;;;;;;;13.70;6.97;;;3.90;99.90;;;;;;7393887;19;20138;-73
2023/01/27 12:33:24;;;;;;;14.43;7.77;;;4.00;99.90;;;;;;7401863;19;20647;-71
2023/01/27 12:35:51;;;;;;;13.90;6.63;;;4.00;99.90;;;;;;7399067;19;20158;-72
2023/01/27 12:38:22;;;;;;;13.80;8.03;;;4.10;99.90;;;;;;7403606;19;20194;-71
2023/01/27 12:41:05;;;;;;;12.33;6.73;;;4.10;99.90;;;;;;7394198;19;20151;-72
2023/01/27 12:43:48;;;;;;;13.80;7.00;;;4.10;99.90;;;;;;7399695;19;20134;-71
2023/01/27 12:46:24;;;;;;;15.67;7.83;;;4.10;99.90;;;;;;7392426;19;21695;-73
2023/01/27 12:49:01;;;;;;;13.83;8.20;;;4.00;99.90;;;;;;7390337;19;20146;-73
2023/01/27 12:51:54;;;;;;;14.50;8.03;;;4.10;99.90;;;;;;7392579;19;20138;-74
2023/01/27 12:54:26;;;;;;;15.67;8.43;;;4.00;99.90;;;;;;7391220;19;20146;-74
2023/01/27 12:56:55;;;;;;;16.43;8.70;;;4.00;99.90;;;;;;7390949;19;20194;-73
2023/01/27 12:59:24;;;;;;;17.57;8.53;;;4.00;99.90;;;;;;7391654;19;20474;-73
2023/01/27 13:02:14;;;;;;;19.83;9.00;;;4.00;99.90;;;;;;7390724;19;20177;-73
2023/01/27 13:04:43;;;;;;;15.20;7.80;;;4.10;99.90;;;;;;7393130;19;20142;-74
2023/01/27 13:07:16;;;;;;;15.00;7.77;;;4.00;99.90;;;;;;7391237;19;20752;-73
2023/01/27 13:09:53;;;;;;;13.97;7.97;;;4.00;99.90;;;;;;7393615;19;20162;-73
2023/01/27 13:12:23;;;;;;;13.97;7.83;;;4.10;99.90;;;;;;7391788;19;20148;-74
2023/01/27 13:14:52;;;;;;;14.53;8.03;;;4.10;99.90;;;;;;7393280;19;20163;-74
2023/01/27 13:17:35;;;;;;;12.97;7.97;;;4.00;99.90;;;;;;7392118;19;20479;-71
2023/01/27 13:20:24;;;;;;;11.83;7.13;;;4.00;99.90;;;;;;7390769;19;20178;-73
2023/01/27 13:22:55;;;;;;;13.57;7.10;;;4.00;99.90;;;;;;7391064;19;20169;-72
2023/01/27 13:25:25;;;;;;;14.67;8.10;;;4.00;99.90;;;;;;7389744;19;20223;-74
2023/01/27 13:27:56;;;;;;;15.30;8.47;;;4.00;99.90;;;;;;7391295;19;20517;-73
2023/01/27 13:30:42;;;;;;;15.73;8.53;;;4.00;99.90;;;;;;7392044;19;20707;-73
2023/01/27 13:33:43;;;;;;;16.23;8.10;;;4.00;99.90;;;;;;7393777;19;20126;-72